Time;durP1;ratioP1;P1;durP2;ratioP2;P2;SDS_P1;SDS_P2;PMS_P1;PMS_P2;Temp;Humidity;BMP_temperature;BMP_pressure;BME280_temperature;BME280_humidity;BME280_pressure;Samples;Min_cycle;Max_cycle;Signal;HPM_P1;HPM_P2
2023/08/18 00:00:25;;;;;;;20.70;17.00;;;19.40;99.90;;;;;;5045080;28;20461;-83
2023/08/18 00:02:52;;;;;;;22.00;16.70;;;19.30;99.90;;;;;;5049126;28;20453;-83
2023/08/18 00:05:19;;;;;;;20.27;15.47;;;19.40;99.90;;;;;;5035659;28;20843;-81
2023/08/18 00:07:47;;;;;;;22.27;17.23;;;19.40;99.90;;;;;;5038571;28;20452;-82
2023/08/18 00:10:14;;;;;;;20.23;16.03;;;19.30;99.90;;;;;;5038102;28;20456;-83
2023/08/18 00:12:41;;;;;;;23.00;18.63;;;19.30;99.90;;;;;;5037664;28;20527;-83
2023/08/18 00:15:08;;;;;;;22.47;17.70;;;19.30;99.90;;;;;;5038040;28;20440;-82
2023/08/18 00:17:35;;;;;;;23.97;19.87;;;19.20;99.90;;;;;;5038285;28;20456;-83
2023/08/18 00:20:02;;;;;;;25.37;18.73;;;19.30;99.90;;;;;;5050957;28;20452;-83
2023/08/18 00:22:29;;;;;;;20.27;17.80;;;19.20;99.90;;;;;;5058098;28;20531;-83
2023/08/18 00:24:57;;;;;;;20.30;18.17;;;19.20;99.90;;;;;;5057800;28;20487;-84
2023/08/18 00:27:24;;;;;;;20.90;18.60;;;19.10;99.90;;;;;;5057428;28;20479;-83
2023/08/18 00:29:51;;;;;;;25.30;20.23;;;19.10;99.90;;;;;;5046170;28;20456;-83
2023/08/18 00:32:18;;;;;;;24.60;20.00;;;19.10;99.90;;;;;;5037554;28;20453;-81
2023/08/18 00:34:45;;;;;;;24.00;19.53;;;19.10;99.90;;;;;;5037776;28;20832;-83
2023/08/18 00:37:13;;;;;;;22.63;19.77;;;19.00;99.90;;;;;;5036944;28;20456;-82
2023/08/18 00:39:39;;;;;;;26.53;20.37;;;19.00;99.90;;;;;;5046635;28;20517;-83
2023/08/18 00:42:08;;;;;;;25.77;19.63;;;19.00;99.90;;;;;;5058122;28;20462;-84
2023/08/18 00:44:34;;;;;;;31.07;22.00;;;19.00;99.90;;;;;;5057292;28;20479;-83
2023/08/18 00:47:02;;;;;;;22.87;19.17;;;19.00;99.90;;;;;;5056893;28;20466;-85
2023/08/18 00:49:29;;;;;;;22.50;19.07;;;18.90;99.90;;;;;;5049534;28;20456;-83
2023/08/18 00:51:57;;;;;;;23.73;18.63;;;18.90;99.90;;;;;;5037519;28;20985;-84
2023/08/18 00:54:24;;;;;;;21.80;18.53;;;18.90;99.90;;;;;;5037691;28;20551;-84
2023/08/18 00:56:51;;;;;;;22.87;18.60;;;18.90;99.90;;;;;;5037533;28;20539;-85
2023/08/18 00:59:20;;;;;;;20.30;18.10;;;19.00;99.90;;;;;;5037363;28;20453;-83
2023/08/18 01:01:47;;;;;;;19.97;16.90;;;19.00;99.90;;;;;;5037777;28;20461;-84
2023/08/18 01:04:14;;;;;;;23.03;17.50;;;19.00;99.90;;;;;;5037731;28;20560;-83
2023/08/18 01:06:41;;;;;;;23.33;19.43;;;19.00;99.90;;;;;;5037687;28;20488;-84
2023/08/18 01:09:08;;;;;;;25.10;19.43;;;18.90;99.90;;;;;;5044500;28;20517;-84
2023/08/18 01:11:40;;;;;;;26.87;19.03;;;19.00;99.90;;;;;;5056925;28;20448;-84
2023/08/18 01:14:16;;;;;;;26.17;19.23;;;19.00;99.90;;;;;;5057871;28;20467;-83
2023/08/18 01:16:53;;;;;;;23.80;18.70;;;19.00;99.90;;;;;;5056938;28;20444;-84
2023/08/18 01:19:22;;;;;;;23.40;19.50;;;19.00;99.90;;;;;;5048049;28;20454;-85
2023/08/18 01:21:53;;;;;;;21.53;17.57;;;19.10;99.90;;;;;;5036531;28;20453;-84
2023/08/18 01:24:24;;;;;;;23.30;17.10;;;19.10;99.90;;;;;;5036408;28;21004;-85
2023/08/18 01:26:51;;;;;;;21.80;16.10;;;19.10;99.90;;;;;;5036058;28;20949;-84
2023/08/18 01:29:18;;;;;;;23.87;17.30;;;19.10;99.90;;;;;;5044744;28;20463;-83
2023/08/18 01:31:48;;;;;;;20.83;16.13;;;19.10;99.90;;;;;;5056897;28;20539;-83
2023/08/18 01:34:18;;;;;;;21.30;16.93;;;19.10;99.90;;;;;;5055545;28;20474;-85
2023/08/18 01:36:46;;;;;;;22.70;17.10;;;19.20;99.90;;;;;;5052135;28;20449;-85
2023/08/18 01:39:14;;;;;;;21.60;15.70;;;19.20;99.90;;;;;;5037475;28;20449;-85
2023/08/18 01:41:43;;;;;;;23.73;17.67;;;19.20;99.90;;;;;;5037444;28;20516;-84
2023/08/18 01:44:10;;;;;;;22.87;17.40;;;19.20;99.90;;;;;;5037171;28;20472;-84
2023/08/18 01:46:37;;;;;;;23.70;17.93;;;19.20;99.90;;;;;;5038907;28;20494;-85
2023/08/18 01:49:04;;;;;;;21.10;17.47;;;19.20;99.90;;;;;;5057660;28;20456;-85
2023/08/18 01:51:30;;;;;;;22.40;18.73;;;19.20;99.90;;;;;;5057887;28;20538;-85
2023/08/18 01:53:57;;;;;;;28.20;20.90;;;19.20;99.90;;;;;;5055838;28;21009;-85
2023/08/18 01:56:24;;;;;;;23.13;19.30;;;19.20;99.90;;;;;;5057607;28;20955;-84
2023/08/18 01:58:52;;;;;;;24.13;18.37;;;19.10;99.90;;;;;;5038751;28;20547;-84
2023/08/18 02:01:19;;;;;;;28.53;22.50;;;19.10;99.90;;;;;;5039332;28;20931;-85
2023/08/18 02:03:46;;;;;;;24.37;19.07;;;19.10;99.90;;;;;;5039226;28;20504;-85
2023/08/18 02:06:13;;;;;;;26.23;20.30;;;19.10;99.90;;;;;;5039751;28;20552;-85
2023/08/18 02:08:40;;;;;;;27.10;19.33;;;19.10;99.90;;;;;;5061031;28;20512;-83
2023/08/18 02:11:07;;;;;;;22.97;18.87;;;19.10;99.90;;;;;;5037942;28;20455;-83
2023/08/18 02:13:34;;;;;;;21.10;18.00;;;19.10;99.90;;;;;;5033823;28;20469;-84
2023/08/18 02:16:02;;;;;;;22.97;18.13;;;19.10;99.90;;;;;;5033810;28;20938;-83
2023/08/18 02:18:30;;;;;;;25.97;19.73;;;19.10;99.90;;;;;;5041744;28;20456;-82
2023/08/18 02:20:57;;;;;;;27.07;20.30;;;19.10;99.90;;;;;;5054047;28;20528;-83
2023/08/18 02:23:23;;;;;;;24.43;19.23;;;19.10;99.90;;;;;;5053375;28;20467;-83
2023/08/18 02:25:51;;;;;;;25.93;19.30;;;19.10;99.90;;;;;;5053457;28;20492;-83
2023/08/18 02:28:18;;;;;;;28.07;21.03;;;19.10;99.90;;;;;;5046865;28;20445;-82
2023/08/18 02:30:45;;;;;;;28.73;20.37;;;19.10;99.90;;;;;;5033145;28;20949;-84
2023/08/18 02:33:13;;;;;;;22.10;17.50;;;19.20;99.90;;;;;;5033344;28;20477;-83
2023/08/18 02:35:45;;;;;;;22.57;18.60;;;19.20;99.90;;;;;;5033503;28;20464;-83
2023/08/18 02:38:15;;;;;;;25.97;19.90;;;19.20;99.90;;;;;;5050323;28;20460;-84
2023/08/18 02:40:42;;;;;;;29.30;16.73;;;19.20;99.90;;;;;;5053807;28;20871;-83
2023/08/18 02:43:08;;;;;;;24.73;18.30;;;19.10;99.90;;;;;;5053515;28;20853;-83
2023/08/18 02:45:35;;;;;;;28.87;19.90;;;19.20;99.90;;;;;;5054037;28;20487;-82
2023/08/18 02:48:02;;;;;;;27.00;19.33;;;19.10;99.90;;;;;;5039116;28;20460;-84
2023/08/18 02:50:30;;;;;;;24.97;17.90;;;19.20;99.90;;;;;;5033603;28;20539;-82
2023/08/18 02:53:00;;;;;;;25.77;19.67;;;19.20;99.90;;;;;;5033106;28;20453;-83
2023/08/18 02:55:27;;;;;;;27.47;20.97;;;19.20;99.90;;;;;;5032728;28;20445;-83
2023/08/18 02:57:54;;;;;;;25.47;19.90;;;19.10;99.90;;;;;;5046353;28;20470;-83
2023/08/18 03:00:21;;;;;;;24.27;18.40;;;19.10;99.90;;;;;;5054418;28;20452;-85
2023/08/18 03:02:49;;;;;;;26.67;20.17;;;19.10;99.90;;;;;;5053419;28;20459;-84
2023/08/18 03:05:16;;;;;;;25.83;19.77;;;19.10;99.90;;;;;;5053142;28;20542;-83
2023/08/18 03:07:44;;;;;;;29.17;19.53;;;19.10;99.90;;;;;;5041641;28;20448;-85
2023/08/18 03:10:11;;;;;;;28.97;20.30;;;19.10;99.90;;;;;;5033472;28;20455;-85
2023/08/18 03:12:38;;;;;;;25.40;19.57;;;19.10;99.90;;;;;;5033901;28;20458;-84
2023/08/18 03:15:06;;;;;;;26.17;18.33;;;19.10;99.90;;;;;;5033825;28;20459;-83
2023/08/18 03:17:33;;;;;;;23.70;17.63;;;19.00;99.90;;;;;;5034344;28;20560;-84
2023/08/18 03:19:59;;;;;;;27.10;19.87;;;19.10;99.90;;;;;;5034475;28;20457;-84
2023/08/18 03:22:27;;;;;;;30.47;19.83;;;19.00;99.90;;;;;;5034331;28;20455;-83
2023/08/18 03:24:55;;;;;;;31.10;21.40;;;19.10;99.90;;;;;;5033688;28;20534;-82
2023/08/18 03:27:22;;;;;;;27.70;20.23;;;19.10;99.90;;;;;;5044776;28;20571;-83
2023/08/18 03:29:49;;;;;;;29.40;20.77;;;19.00;99.90;;;;;;5054909;28;20519;-83
2023/08/18 03:32:16;;;;;;;29.37;19.83;;;19.00;99.90;;;;;;5054626;28;20540;-83
2023/08/18 03:34:42;;;;;;;26.03;19.07;;;19.10;99.90;;;;;;5054375;28;20483;-83
2023/08/18 03:37:09;;;;;;;24.57;20.63;;;19.10;99.90;;;;;;5045579;28;20453;-85
2023/08/18 03:39:36;;;;;;;26.17;19.13;;;19.10;99.90;;;;;;5035481;28;20540;-84
2023/08/18 03:42:04;;;;;;;28.30;19.83;;;19.10;99.90;;;;;;5039258;28;20440;-83
2023/08/18 03:44:31;;;;;;;25.43;19.00;;;19.00;99.90;;;;;;5039385;28;20520;-83
2023/08/18 03:46:58;;;;;;;21.30;18.67;;;19.00;99.90;;;;;;5045382;28;20494;-84
2023/08/18 03:49:25;;;;;;;25.77;19.03;;;19.00;99.90;;;;;;5059336;28;20739;-85
2023/08/18 03:51:51;;;;;;;22.17;17.37;;;19.00;99.90;;;;;;5060125;28;20452;-82
2023/08/18 03:54:18;;;;;;;21.30;17.10;;;19.00;99.90;;;;;;5059453;28;21000;-84
2023/08/18 03:56:45;;;;;;;22.50;17.83;;;19.00;99.90;;;;;;5054350;28;20455;-85
2023/08/18 03:59:13;;;;;;;21.90;17.53;;;19.00;99.90;;;;;;5040480;28;20953;-84
2023/08/18 04:01:40;;;;;;;23.50;17.73;;;19.00;99.90;;;;;;5040391;28;20453;-84
2023/08/18 04:04:07;;;;;;;23.20;18.10;;;19.00;99.90;;;;;;5041602;28;20854;-86
2023/08/18 04:06:34;;;;;;;21.40;17.67;;;19.00;99.90;;;;;;5042815;28;20480;-84
2023/08/18 04:09:06;;;;;;;24.40;19.30;;;19.00;99.90;;;;;;5061495;28;20530;-84
2023/08/18 04:11:33;;;;;;;22.37;17.83;;;19.00;99.90;;;;;;5061581;28;20479;-85
2023/08/18 04:14:00;;;;;;;22.87;19.57;;;19.00;99.90;;;;;;5069506;28;20475;-84
2023/08/18 04:16:29;;;;;;;26.00;19.13;;;19.00;99.90;;;;;;5070913;28;20523;-85
2023/08/18 04:18:55;;;;;;;20.20;17.90;;;19.00;99.90;;;;;;5060279;28;20450;-84
2023/08/18 04:21:22;;;;;;;23.30;17.70;;;18.90;99.90;;;;;;5060627;28;20451;-84
2023/08/18 04:23:49;;;;;;;22.23;18.57;;;19.00;99.90;;;;;;5035952;28;20544;-84
2023/08/18 04:26:16;;;;;;;25.00;19.03;;;19.00;99.90;;;;;;5032287;28;20476;-84
2023/08/18 04:28:43;;;;;;;27.43;18.33;;;19.00;99.90;;;;;;5061211;28;20872;-84
2023/08/18 04:31:09;;;;;;;27.23;20.20;;;18.90;99.90;;;;;;5045792;28;20977;-84
2023/08/18 04:33:37;;;;;;;24.60;17.90;;;18.90;99.90;;;;;;5041062;28;20472;-84
2023/08/18 04:36:05;;;;;;;21.77;18.33;;;18.80;99.90;;;;;;5048590;28;20945;-83
2023/08/18 04:38:32;;;;;;;23.60;18.93;;;18.90;99.90;;;;;;5035828;28;20453;-83
2023/08/18 04:40:59;;;;;;;27.67;20.17;;;18.90;99.90;;;;;;5047668;28;20455;-83
2023/08/18 04:43:27;;;;;;;28.87;21.13;;;18.90;99.90;;;;;;5058284;28;20494;-83
2023/08/18 04:45:54;;;;;;;27.60;20.60;;;18.90;99.90;;;;;;5056978;28;20838;-83
2023/08/18 04:48:21;;;;;;;29.17;20.33;;;18.90;99.90;;;;;;5055994;28;20444;-82
2023/08/18 04:50:49;;;;;;;33.70;23.60;;;18.90;99.90;;;;;;5046732;28;20897;-83
2023/08/18 04:53:16;;;;;;;33.50;22.57;;;18.90;99.90;;;;;;5055154;28;20467;-83
2023/08/18 04:55:43;;;;;;;34.50;24.30;;;18.90;99.90;;;;;;5055604;28;20467;-83
2023/08/18 04:58:12;;;;;;;36.83;24.43;;;18.90;99.90;;;;;;5057382;28;20474;-82
2023/08/18 05:00:39;;;;;;;32.87;23.10;;;18.90;99.90;;;;;;5046780;28;20453;-83
2023/08/18 05:03:06;;;;;;;35.80;24.70;;;18.90;99.90;;;;;;5039265;28;20476;-82
2023/08/18 05:05:34;;;;;;;36.40;25.30;;;18.90;99.90;;;;;;5036817;28;20440;-82
2023/08/18 05:08:02;;;;;;;34.20;22.23;;;19.00;99.90;;;;;;5036843;28;20587;-82
2023/08/18 05:10:29;;;;;;;32.70;24.00;;;18.90;99.90;;;;;;5043916;28;20811;-83
2023/08/18 05:12:56;;;;;;;37.73;24.70;;;18.90;99.90;;;;;;5056640;28;20444;-84
2023/08/18 05:15:23;;;;;;;30.30;23.37;;;18.90;99.90;;;;;;5056646;28;20439;-84
2023/08/18 05:17:50;;;;;;;38.10;24.93;;;18.80;99.90;;;;;;5057586;28;20901;-80
2023/08/18 05:20:17;;;;;;;38.03;24.43;;;18.90;99.90;;;;;;5048542;28;20524;-81
2023/08/18 05:22:43;;;;;;;33.67;24.37;;;18.90;99.90;;;;;;5037379;28;20445;-82
2023/08/18 05:25:13;;;;;;;29.50;21.43;;;18.90;99.90;;;;;;5037256;28;20448;-83
2023/08/18 05:27:40;;;;;;;30.27;21.60;;;18.90;99.90;;;;;;5036608;28;20491;-82
2023/08/18 05:30:08;;;;;;;32.67;23.40;;;18.90;99.90;;;;;;5042799;28;20452;-82
2023/08/18 05:32:35;;;;;;;33.57;24.50;;;18.80;99.90;;;;;;5056488;28;20513;-82
2023/08/18 05:35:03;;;;;;;34.17;24.37;;;18.70;99.90;;;;;;5056699;28;20555;-81
2023/08/18 05:37:30;;;;;;;34.40;23.70;;;18.80;99.90;;;;;;5056689;28;20840;-83
2023/08/18 05:39:57;;;;;;;33.77;25.00;;;18.80;99.90;;;;;;5051963;28;20455;-82
2023/08/18 05:42:25;;;;;;;35.27;24.23;;;18.80;99.90;;;;;;5038086;28;20468;-83
2023/08/18 05:44:52;;;;;;;33.20;22.80;;;18.90;99.90;;;;;;5058588;22;20507;-83
2023/08/18 05:47:18;;;;;;;41.30;26.03;;;18.90;99.90;;;;;;5032986;28;20492;-82
2023/08/18 05:49:45;;;;;;;36.20;26.60;;;18.90;99.90;;;;;;5036956;28;20455;-82
2023/08/18 05:52:12;;;;;;;32.37;22.53;;;18.80;99.90;;;;;;5053978;28;20459;-83
2023/08/18 05:54:39;;;;;;;31.13;22.77;;;18.90;99.90;;;;;;5054856;28;20580;-84
2023/08/18 05:57:06;;;;;;;34.77;23.33;;;18.90;99.90;;;;;;5055071;28;20528;-83
2023/08/18 05:59:35;;;;;;;30.63;22.30;;;18.90;99.90;;;;;;5053458;28;20448;-83
2023/08/18 06:02:04;;;;;;;34.07;23.77;;;18.90;99.90;;;;;;5035588;28;20544;-83
2023/08/18 06:04:30;;;;;;;32.53;22.97;;;18.90;99.90;;;;;;5036161;28;20939;-83
2023/08/18 06:06:57;;;;;;;28.83;21.73;;;18.90;99.90;;;;;;5035835;28;20495;-83
2023/08/18 06:09:24;;;;;;;40.60;25.07;;;18.90;99.90;;;;;;5036642;28;20889;-83
2023/08/18 06:11:51;;;;;;;33.30;23.23;;;18.80;99.90;;;;;;5036125;28;20464;-81
2023/08/18 06:14:34;;;;;;;33.67;22.80;;;18.80;99.90;;;;;;5043939;22;20555;-81
2023/08/18 06:17:01;;;;;;;29.23;20.27;;;18.80;99.90;;;;;;5010149;28;20891;-82
2023/08/18 06:19:28;;;;;;;30.10;21.50;;;18.80;99.90;;;;;;5016114;28;20445;-81
2023/08/18 06:21:54;;;;;;;30.97;21.07;;;18.80;99.90;;;;;;5016073;28;20873;-80
2023/08/18 06:24:21;;;;;;;30.50;21.40;;;18.80;99.90;;;;;;5016067;28;20468;-81
2023/08/18 06:26:48;;;;;;;25.30;20.67;;;18.80;99.90;;;;;;5015352;28;20485;-81
2023/08/18 06:29:19;;;;;;;29.23;21.50;;;18.90;99.90;;;;;;5015869;28;20453;-80
2023/08/18 06:31:48;;;;;;;26.90;21.57;;;18.90;99.90;;;;;;5014495;28;20457;-80
2023/08/18 06:34:14;;;;;;;27.20;21.27;;;18.90;99.90;;;;;;4996216;28;20569;-81
2023/08/18 06:36:41;;;;;;;26.60;22.07;;;18.90;99.90;;;;;;4996308;28;20978;-81
2023/08/18 06:39:08;;;;;;;24.03;20.20;;;18.90;99.90;;;;;;4996613;28;20462;-81
2023/08/18 06:41:37;;;;;;;25.37;19.73;;;19.00;99.90;;;;;;4996838;28;20845;-81
2023/08/18 06:44:05;;;;;;;29.30;20.83;;;19.00;99.90;;;;;;5008519;28;20508;-81
2023/08/18 06:46:31;;;;;;;25.83;19.50;;;19.00;99.90;;;;;;5024811;28;20481;-81
2023/08/18 06:49:00;;;;;;;30.40;21.23;;;19.00;99.90;;;;;;5026690;28;20959;-81
2023/08/18 06:51:28;;;;;;;26.67;20.37;;;19.00;99.90;;;;;;5029058;28;20457;-79
2023/08/18 06:53:55;;;;;;;27.30;21.50;;;19.00;99.90;;;;;;5057646;22;20503;-80
2023/08/18 06:56:22;;;;;;;24.20;20.30;;;19.10;99.90;;;;;;5060047;28;20424;-80
2023/08/18 06:58:49;;;;;;;21.90;17.87;;;19.00;99.90;;;;;;5062925;28;20464;-80
2023/08/18 07:01:16;;;;;;;18.53;15.40;;;19.00;99.90;;;;;;5064771;28;20530;-80
2023/08/18 07:09:43;;;;;;;17.60;14.43;;;19.00;99.90;;;;;;4971093;28;20447;-79
2023/08/18 07:12:11;;;;;;;20.83;15.50;;;19.10;99.90;;;;;;4981352;28;20455;-80
2023/08/18 07:14:38;;;;;;;15.50;13.40;;;19.10;99.90;;;;;;5007920;28;20473;-79
2023/08/18 07:17:05;;;;;;;18.73;14.50;;;19.10;99.90;;;;;;5027228;28;20477;-79
2023/08/18 07:19:32;;;;;;;17.30;15.07;;;19.20;99.90;;;;;;5027557;28;20458;-80
2023/08/18 07:21:58;;;;;;;18.90;15.80;;;19.10;99.90;;;;;;5025835;28;20476;-81
2023/08/18 07:24:25;;;;;;;16.47;13.20;;;19.10;99.90;;;;;;5029136;28;20508;-80
2023/08/18 07:26:54;;;;;;;21.40;15.73;;;19.20;99.90;;;;;;5026851;28;20907;-80
2023/08/18 07:29:21;;;;;;;18.13;15.43;;;19.20;99.90;;;;;;5026659;28;20962;-80
2023/08/18 07:31:48;;;;;;;21.20;15.90;;;19.30;99.90;;;;;;5026191;28;20528;-81
2023/08/18 07:34:15;;;;;;;23.00;17.23;;;19.30;99.90;;;;;;5027493;28;20500;-78
2023/08/18 07:36:42;;;;;;;20.97;16.63;;;19.30;99.90;;;;;;5026975;28;20507;-81
2023/08/18 07:39:10;;;;;;;17.93;15.37;;;19.40;99.90;;;;;;5026168;28;20460;-82
2023/08/18 07:41:38;;;;;;;17.57;14.90;;;19.40;99.90;;;;;;5023547;28;20450;-82
2023/08/18 07:44:06;;;;;;;16.43;14.53;;;19.40;99.90;;;;;;5022189;28;20867;-82
2023/08/18 07:46:33;;;;;;;15.30;12.77;;;19.40;99.90;;;;;;5024194;28;20457;-81
2023/08/18 07:49:00;;;;;;;15.47;12.70;;;19.50;99.90;;;;;;5026252;28;20544;-81
2023/08/18 07:51:27;;;;;;;14.27;12.30;;;19.40;99.90;;;;;;5024993;28;20445;-82
2023/08/18 07:53:54;;;;;;;15.70;12.30;;;19.50;99.90;;;;;;5023978;28;20512;-82
2023/08/18 07:56:21;;;;;;;13.90;12.20;;;19.60;99.90;;;;;;5023478;28;20438;-83
2023/08/18 07:58:48;;;;;;;12.57;10.57;;;19.60;99.90;;;;;;5023329;28;20441;-84
2023/08/18 08:01:16;;;;;;;13.50;11.73;;;19.70;99.90;;;;;;5021951;28;20540;-84
2023/08/18 08:03:43;;;;;;;13.37;11.67;;;19.70;99.90;;;;;;5022625;28;20461;-83
2023/08/18 08:06:10;;;;;;;11.13;9.63;;;19.80;99.90;;;;;;5045778;28;20462;-83
2023/08/18 08:08:37;;;;;;;10.10;8.27;;;19.70;99.90;;;;;;5062910;28;20523;-84
2023/08/18 08:11:03;;;;;;;11.60;9.13;;;19.70;99.90;;;;;;5063921;28;20831;-83
2023/08/18 08:13:30;;;;;;;12.67;10.37;;;19.70;99.90;;;;;;5063420;28;20448;-83
2023/08/18 08:15:57;;;;;;;15.43;12.10;;;19.70;99.90;;;;;;5063414;28;20916;-83
2023/08/18 08:18:25;;;;;;;12.20;9.73;;;19.60;99.90;;;;;;5062321;28;20512;-83
2023/08/18 08:20:52;;;;;;;16.07;10.83;;;19.60;99.90;;;;;;5062096;28;21028;-83
2023/08/18 08:23:19;;;;;;;10.07;8.40;;;19.60;99.90;;;;;;5061113;28;20861;-84
2023/08/18 08:25:47;;;;;;;10.13;8.07;;;19.70;99.90;;;;;;5060777;28;20478;-84
2023/08/18 08:28:14;;;;;;;11.57;10.37;;;19.80;99.90;;;;;;5056818;28;20476;-84
2023/08/18 08:30:44;;;;;;;12.83;10.97;;;19.90;99.90;;;;;;5041018;28;20477;-83
2023/08/18 08:33:11;;;;;;;12.93;11.43;;;20.00;99.90;;;;;;5041592;28;20512;-83
2023/08/18 08:35:40;;;;;;;14.53;11.30;;;19.90;99.90;;;;;;5041473;28;20544;-84
2023/08/18 08:38:06;;;;;;;9.73;8.73;;;20.00;99.90;;;;;;5051454;28;20469;-84
2023/08/18 08:40:33;;;;;;;10.80;9.37;;;20.10;99.90;;;;;;5055987;28;20476;-82
2023/08/18 08:43:00;;;;;;;12.93;11.10;;;20.10;99.90;;;;;;5055739;28;20455;-82
2023/08/18 08:45:28;;;;;;;14.50;11.07;;;20.10;99.90;;;;;;5054037;28;20500;-82
2023/08/18 08:47:57;;;;;;;11.83;9.57;;;20.00;99.90;;;;;;5053005;28;20546;-84
2023/08/18 08:50:28;;;;;;;10.90;9.37;;;20.10;99.90;;;;;;5048990;28;20457;-82
2023/08/18 08:52:59;;;;;;;12.53;9.40;;;20.20;99.90;;;;;;5049511;28;20445;-83
2023/08/18 08:55:33;;;;;;;12.87;9.60;;;20.40;99.90;;;;;;5041914;28;20476;-83
2023/08/18 08:58:01;;;;;;;12.93;10.10;;;20.40;99.90;;;;;;5041416;28;20524;-84
2023/08/18 09:00:28;;;;;;;9.70;8.70;;;20.50;99.90;;;;;;5041607;28;20528;-84
2023/08/18 09:02:59;;;;;;;10.63;8.87;;;20.60;99.90;;;;;;5040188;28;20549;-83
2023/08/18 09:05:28;;;;;;;9.30;8.40;;;20.70;99.90;;;;;;5037025;28;20504;-83
2023/08/18 09:07:57;;;;;;;9.60;8.60;;;20.80;99.90;;;;;;5036709;28;20495;-83
2023/08/18 09:10:24;;;;;;;10.57;9.40;;;20.80;99.90;;;;;;5036344;28;20459;-83
2023/08/18 09:12:51;;;;;;;10.20;9.20;;;20.90;99.90;;;;;;5036495;28;20967;-82
2023/08/18 09:15:18;;;;;;;8.40;7.60;;;20.80;99.90;;;;;;5036495;28;20556;-83
2023/08/18 09:17:45;;;;;;;11.13;9.53;;;20.90;99.90;;;;;;5036813;28;20463;-83
2023/08/18 09:20:13;;;;;;;10.23;8.10;;;21.00;99.90;;;;;;5036195;28;20456;-82
2023/08/18 09:22:40;;;;;;;10.20;9.07;;;21.10;99.90;;;;;;5035935;28;20821;-83
2023/08/18 09:38:02;;;;;;;12.40;11.07;;;21.50;99.90;;;;;;5012842;28;20504;-85
2023/08/18 09:40:29;;;;;;;12.50;11.23;;;21.60;99.90;;;;;;5016686;28;20495;-82
2023/08/18 09:42:59;;;;;;;11.03;9.93;;;21.60;99.90;;;;;;5016003;28;20469;-82
2023/08/18 09:45:27;;;;;;;11.23;10.03;;;21.70;99.90;;;;;;5015864;28;20778;-83
2023/08/18 09:47:55;;;;;;;10.70;9.60;;;21.70;99.90;;;;;;5015429;28;20479;-83
2023/08/18 09:50:23;;;;;;;11.20;10.10;;;21.70;99.90;;;;;;5015495;28;20457;-80
2023/08/18 09:52:54;;;;;;;10.87;9.77;;;21.80;99.90;;;;;;5014798;28;20900;-81
2023/08/18 09:55:27;;;;;;;10.00;9.00;;;21.90;99.90;;;;;;5015238;28;20465;-85
2023/08/18 09:57:57;;;;;;;10.10;9.10;;;21.80;99.90;;;;;;5015419;28;20466;-82
2023/08/18 10:00:27;;;;;;;9.63;8.70;;;22.00;99.90;;;;;;5015920;28;20541;-84
2023/08/18 10:02:56;;;;;;;14.20;11.57;;;22.10;99.90;;;;;;5015957;28;20453;-85
2023/08/18 10:05:26;;;;;;;14.73;13.30;;;22.30;99.90;;;;;;5015991;28;21012;-86
2023/08/18 10:07:53;;;;;;;14.37;13.07;;;22.30;99.90;;;;;;5015244;28;20481;-83
2023/08/18 10:10:22;;;;;;;12.93;11.60;;;22.40;99.90;;;;;;5015967;28;20888;-83
2023/08/18 10:12:51;;;;;;;13.20;12.00;;;22.50;99.90;;;;;;5015250;28;20617;-83
2023/08/18 10:15:19;;;;;;;14.43;13.07;;;22.70;99.90;;;;;;5015471;28;20465;-82
2023/08/18 10:17:46;;;;;;;13.90;12.50;;;23.10;99.90;;;;;;5015471;28;20828;-82
2023/08/18 10:20:13;;;;;;;15.10;11.50;;;23.50;99.90;;;;;;5015582;28;20544;-82
2023/08/18 10:22:43;;;;;;;14.93;13.60;;;23.70;99.90;;;;;;5015317;28;20456;-82
2023/08/18 10:25:10;;;;;;;16.87;13.80;;;23.70;99.90;;;;;;5007132;28;20497;-83
2023/08/18 10:27:40;;;;;;;14.90;13.40;;;23.90;99.90;;;;;;5016322;28;20525;-82
2023/08/18 10:30:30;;;;;;;16.60;14.90;;;24.10;99.90;;;;;;5015896;28;20454;-82
2023/08/18 10:33:03;;;;;;;15.77;14.27;;;24.50;99.90;;;;;;5016476;28;20445;-83
2023/08/18 10:35:30;;;;;;;19.43;17.33;;;24.70;99.90;;;;;;5015401;28;20484;-82
2023/08/18 10:37:58;;;;;;;19.10;17.23;;;24.90;99.90;;;;;;5015931;28;20457;-83
2023/08/18 10:40:26;;;;;;;15.03;13.60;;;25.00;99.90;;;;;;5014717;28;20989;-83
2023/08/18 10:42:59;;;;;;;14.27;13.07;;;25.10;99.90;;;;;;4996398;28;20454;-83
2023/08/18 10:45:28;;;;;;;14.97;13.67;;;25.50;99.90;;;;;;5011272;28;20553;-83
2023/08/18 10:47:58;;;;;;;13.83;12.60;;;25.90;99.90;;;;;;5014415;28;20496;-82
2023/08/18 10:50:27;;;;;;;13.73;12.50;;;26.10;99.90;;;;;;5014610;28;20763;-82
2023/08/18 10:52:54;;;;;;;13.63;12.53;;;26.40;99.90;;;;;;5014500;28;20549;-82
2023/08/18 10:55:21;;;;;;;14.93;13.60;;;26.50;43.80;;;;;;5013721;28;20512;-83
2023/08/18 10:57:48;;;;;;;13.93;12.83;;;26.80;52.70;;;;;;5014319;28;20469;-82
2023/08/18 11:00:17;;;;;;;14.77;13.23;;;26.70;21.10;;;;;;5014374;28;20480;-83
2023/08/18 11:02:45;;;;;;;16.20;14.97;;;26.90;26.00;;;;;;5015942;28;20465;-84
2023/08/18 11:05:13;;;;;;;13.70;12.60;;;27.00;48.50;;;;;;5014694;28;20958;-83
2023/08/18 11:07:40;;;;;;;15.33;14.03;;;27.20;1.00;;;;;;5014429;28;20973;-83
2023/08/18 11:10:15;;;;;;;12.10;11.07;;;27.40;1.00;;;;;;5018882;28;20471;-83
2023/08/18 11:12:43;;;;;;;13.90;12.80;;;27.50;1.00;;;;;;5019619;28;20429;-83
2023/08/18 11:15:10;;;;;;;14.27;12.97;;;27.60;1.00;;;;;;5022240;28;21206;-83
2023/08/18 11:17:37;;;;;;;12.57;11.57;;;27.70;1.00;;;;;;5014395;28;20450;-83
2023/08/18 11:20:06;;;;;;;11.57;10.67;;;27.90;1.00;;;;;;5014799;28;20446;-83
2023/08/18 11:22:37;;;;;;;10.77;9.90;;;27.80;1.00;;;;;;5014153;28;20536;-83
2023/08/18 11:25:05;;;;;;;10.20;9.33;;;28.10;1.00;;;;;;5014311;28;20465;-83
2023/08/18 11:27:32;;;;;;;11.03;9.93;;;28.20;1.00;;;;;;5014802;28;20453;-83
2023/08/18 11:29:59;;;;;;;10.23;9.23;;;28.20;1.00;;;;;;5014098;28;20862;-84
2023/08/18 11:32:26;;;;;;;11.57;10.47;;;28.20;1.00;;;;;;5014825;28;20454;-82
2023/08/18 11:34:53;;;;;;;12.40;11.30;;;28.40;1.00;;;;;;5013160;28;20439;-81
2023/08/18 11:37:21;;;;;;;11.13;10.23;;;28.50;1.00;;;;;;5013905;28;20676;-82
2023/08/18 11:39:50;;;;;;;10.83;9.93;;;28.60;1.00;;;;;;5011863;28;20529;-81
2023/08/18 11:42:20;;;;;;;9.93;9.03;;;28.80;1.00;;;;;;5011719;28;20450;-81
2023/08/18 11:59:13;;;;;;;9.03;8.13;;;29.40;1.00;;;;;;4935790;28;20445;-82
2023/08/18 12:02:01;;;;;;;8.93;8.13;;;29.40;1.00;;;;;;5013281;28;20446;-83
2023/08/18 12:04:29;;;;;;;9.63;8.70;;;29.60;1.00;;;;;;5017719;28;20488;-82
2023/08/18 12:06:57;;;;;;;9.30;8.50;;;29.80;99.90;;;;;;5061571;23;20500;-82
2023/08/18 12:09:24;;;;;;;9.97;9.00;;;29.80;1.00;;;;;;5061239;28;20586;-83
2023/08/18 12:11:51;;;;;;;10.30;8.57;;;29.90;1.00;;;;;;5060200;28;20451;-82
2023/08/18 12:14:20;;;;;;;12.50;11.30;;;30.00;1.00;;;;;;5052955;28;20532;-82
2023/08/18 12:16:47;;;;;;;13.00;11.87;;;30.20;99.90;;;;;;5039957;28;20476;-82
2023/08/18 12:19:14;;;;;;;14.20;13.10;;;30.10;99.90;;;;;;5039896;28;20895;-83
2023/08/18 12:21:41;;;;;;;13.73;12.40;;;30.40;1.00;;;;;;5040598;28;20456;-81
2023/08/18 12:24:09;;;;;;;13.10;12.00;;;30.40;1.00;;;;;;5039844;28;20449;-82
2023/08/18 12:26:37;;;;;;;13.27;12.07;;;30.50;1.00;;;;;;5040021;28;20985;-82
2023/08/18 12:29:04;;;;;;;12.80;11.60;;;30.60;99.90;;;;;;5047270;28;20501;-81
2023/08/18 12:31:32;;;;;;;13.00;12.00;;;30.60;1.00;;;;;;5060100;28;20527;-82
2023/08/18 12:34:01;;;;;;;13.87;12.57;;;30.70;99.90;;;;;;5061028;28;20512;-82
2023/08/18 12:36:27;;;;;;;12.53;11.43;;;30.70;1.00;;;;;;5063366;28;20475;-81
2023/08/18 12:38:55;;;;;;;13.60;12.40;;;30.80;99.90;;;;;;5073665;28;20520;-80
2023/08/18 12:41:23;;;;;;;13.33;12.23;;;30.90;1.00;;;;;;5060769;28;20972;-82
2023/08/18 12:43:50;;;;;;;13.10;12.10;;;30.90;99.90;;;;;;5061669;28;20815;-82
2023/08/18 12:46:17;;;;;;;12.30;11.40;;;31.00;99.90;;;;;;5061273;28;20471;-82
2023/08/18 12:48:45;;;;;;;13.10;12.10;;;31.10;99.90;;;;;;5060242;28;20486;-83
2023/08/18 12:51:17;;;;;;;11.90;10.80;;;31.20;1.00;;;;;;5061565;28;20454;-82
2023/08/18 12:53:44;;;;;;;13.47;12.33;;;31.30;1.00;;;;;;5058015;28;20548;-83
2023/08/18 12:56:11;;;;;;;11.63;10.73;;;31.50;99.90;;;;;;5051873;28;20456;-83
2023/08/18 12:58:38;;;;;;;12.00;11.10;;;31.60;1.00;;;;;;5060601;28;20459;-82
2023/08/18 13:01:07;;;;;;;12.27;11.30;;;31.60;40.90;;;;;;5062727;28;20455;-81
2023/08/18 13:03:34;;;;;;;13.80;12.50;;;31.70;1.00;;;;;;5063775;28;20840;-83
2023/08/18 13:06:03;;;;;;;13.00;11.80;;;31.70;1.00;;;;;;5063273;28;20524;-83